Terminal Aerodrome Forecast
Issued by NWS Pittsburgh, PA

Current Version | Previous Version | Text Only | Print | Product List | Glossary Off
Versions: 1 2 3 4 5 6 7 8 9 10 11 12 13 14 15 16 17 18 19 20 21 22 23 24 25 26 27 28 29 30

000
FTUS41 KPBZ 260300 AAA
TAFPIT
TAF AMD
KPIT 260319Z 2603/2706 05008KT 1SM -SN OVC007
      TEMPO 2604/2606 1/2SM SN OVC003
     FM261000 04007KT 2SM -SN BR OVC007
     FM262100 01008KT 3SM -SHSN OVC010=

USA.gov is the U.S. government's official web portal to all federal, state and local government web resources and services.